createdAt,value
2022-12-29T00:00:00.498Z,79.79
2022-12-29T00:01:00.723Z,79.79
2022-12-29T00:02:00.425Z,79.79
2022-12-29T00:03:00.430Z,80.10
2022-12-29T00:04:00.539Z,80.10
2022-12-29T00:05:00.369Z,80.10
2022-12-29T00:06:00.347Z,80.10
2022-12-29T00:07:00.517Z,80.10
2022-12-29T00:08:00.412Z,80.26
2022-12-29T00:09:00.353Z,80.26
2022-12-29T00:10:00.392Z,80.26
2022-12-29T00:11:00.349Z,80.26
2022-12-29T00:12:00.975Z,80.26
2022-12-29T00:13:00.364Z,79.88
2022-12-29T00:14:00.350Z,79.88
2022-12-29T00:15:00.374Z,79.88
2022-12-29T00:16:00.398Z,79.88
2022-12-29T00:17:00.553Z,79.88
2022-12-29T00:18:00.379Z,79.45
2022-12-29T00:19:00.759Z,79.45
2022-12-29T00:20:00.372Z,79.45
2022-12-29T00:21:00.348Z,79.45
2022-12-29T00:22:00.350Z,79.45
2022-12-29T00:23:00.369Z,78.75
2022-12-29T00:24:00.642Z,78.75
2022-12-29T00:25:00.566Z,78.75
2022-12-29T00:26:03.044Z,78.75
2022-12-29T00:27:01.386Z,78.75
2022-12-29T00:28:06.616Z,78.65
2022-12-29T00:29:00.358Z,78.65
2022-12-29T00:30:00.326Z,78.65
2022-12-29T00:31:00.877Z,78.65
2022-12-29T00:32:00.355Z,78.65
2022-12-29T00:33:00.484Z,78.63
2022-12-29T00:34:00.350Z,78.63
2022-12-29T00:35:00.342Z,78.63
2022-12-29T00:36:02.362Z,78.63
2022-12-29T00:37:00.527Z,78.63
2022-12-29T00:38:03.337Z,78.75
2022-12-29T00:39:02.009Z,78.75
2022-12-29T00:40:00.358Z,78.75
2022-12-29T00:41:00.356Z,78.75
2022-12-29T00:42:04.567Z,78.75
2022-12-29T00:43:00.350Z,78.27
2022-12-29T00:44:00.452Z,78.27
2022-12-29T00:45:00.343Z,78.27
2022-12-29T00:46:00.342Z,78.27
2022-12-29T00:47:00.441Z,78.27
2022-12-29T00:48:00.348Z,77.62
2022-12-29T00:49:01.170Z,77.62
2022-12-29T00:50:00.365Z,77.62
2022-12-29T00:51:00.352Z,77.62
2022-12-29T00:52:00.332Z,77.62
2022-12-29T00:53:00.366Z,77.62
2022-12-29T00:54:00.381Z,77.62
2022-12-29T00:55:00.377Z,77.62
2022-12-29T00:56:00.850Z,77.62
2022-12-29T00:57:00.932Z,77.62
2022-12-29T00:58:00.344Z,77.44
2022-12-29T00:59:02.600Z,77.44
2022-12-29T01:00:00.397Z,77.44
2022-12-29T01:01:01.288Z,77.44
2022-12-29T01:02:00.550Z,77.44
2022-12-29T01:03:00.642Z,76.73
2022-12-29T01:04:03.984Z,76.73
2022-12-29T01:05:00.385Z,76.73
2022-12-29T01:06:00.932Z,76.73
2022-12-29T01:07:00.550Z,76.73
2022-12-29T01:08:00.365Z,76.80
2022-12-29T01:09:00.507Z,76.80
2022-12-29T01:10:00.340Z,76.80
2022-12-29T01:11:01.127Z,76.80
2022-12-29T01:12:00.375Z,76.80
2022-12-29T01:13:00.348Z,76.86
2022-12-29T01:14:00.339Z,76.86
2022-12-29T01:15:00.356Z,76.86
2022-12-29T01:16:00.527Z,76.86
2022-12-29T01:17:00.447Z,76.86
2022-12-29T01:18:00.448Z,75.59
2022-12-29T01:19:00.366Z,75.59
2022-12-29T01:20:00.794Z,75.59
2022-12-29T01:21:01.277Z,75.59
2022-12-29T01:22:00.519Z,75.59
2022-12-29T01:23:00.353Z,76.50
2022-12-29T01:24:00.391Z,76.50
2022-12-29T01:25:00.349Z,76.50
2022-12-29T01:26:10.296Z,76.50
2022-12-29T01:27:00.345Z,76.50
2022-12-29T01:28:00.373Z,76.46
2022-12-29T01:29:00.375Z,76.46
2022-12-29T01:30:00.372Z,76.46
2022-12-29T01:31:00.987Z,76.46
2022-12-29T01:32:00.484Z,76.46
2022-12-29T01:33:00.518Z,76.49
2022-12-29T01:34:00.682Z,76.49
2022-12-29T01:35:00.365Z,76.49
2022-12-29T01:36:01.929Z,76.49
2022-12-29T01:37:00.398Z,76.49
2022-12-29T01:38:00.392Z,76.99
2022-12-29T01:39:00.405Z,76.99
2022-12-29T01:40:00.353Z,76.99
2022-12-29T01:41:00.450Z,76.99
2022-12-29T01:42:00.359Z,76.99
2022-12-29T01:43:00.405Z,77.62
2022-12-29T01:44:00.440Z,77.62
2022-12-29T01:45:02.767Z,77.62
2022-12-29T01:46:00.463Z,77.62
2022-12-29T01:47:00.338Z,77.62
2022-12-29T01:48:01.938Z,77.82
2022-12-29T01:49:07.789Z,77.82
2022-12-29T01:50:04.320Z,77.82
2022-12-29T01:51:00.358Z,77.82
2022-12-29T01:52:02.808Z,77.82
2022-12-29T01:53:03.362Z,78.01
2022-12-29T01:54:02.632Z,78.01
2022-12-29T01:55:01.781Z,78.01
2022-12-29T01:56:04.547Z,78.01
2022-12-29T01:57:02.991Z,78.01
2022-12-29T01:58:04.274Z,77.97
2022-12-29T01:59:02.436Z,77.97
2022-12-29T02:00:02.668Z,77.97
2022-12-29T02:01:00.454Z,77.97
2022-12-29T02:02:01.471Z,77.97
2022-12-29T02:03:00.399Z,78.31
2022-12-29T02:04:00.700Z,78.31
2022-12-29T02:05:04.968Z,78.31
2022-12-29T02:06:04.358Z,78.31
2022-12-29T02:07:04.187Z,78.31
2022-12-29T02:08:01.140Z,77.81
2022-12-29T02:09:00.428Z,77.81
2022-12-29T02:10:01.835Z,77.81
2022-12-29T02:11:02.532Z,77.81
2022-12-29T02:12:00.715Z,77.81
2022-12-29T02:13:00.418Z,77.48
2022-12-29T02:14:03.531Z,77.48
2022-12-29T02:15:01.718Z,77.48
2022-12-29T02:16:00.475Z,77.48
2022-12-29T02:17:01.436Z,77.48
2022-12-29T02:18:03.704Z,77.27
2022-12-29T02:19:00.380Z,77.27
2022-12-29T02:20:03.674Z,77.27
2022-12-29T02:21:10.365Z,77.27
2022-12-29T02:22:10.380Z,77.27
2022-12-29T02:23:10.284Z,75.83
2022-12-29T02:24:10.311Z,75.83
2022-12-29T02:25:00.397Z,75.83
2022-12-29T02:26:10.302Z,75.83
2022-12-29T02:27:10.306Z,75.83
2022-12-29T02:28:00.398Z,75.34
2022-12-29T02:29:10.353Z,75.34
2022-12-29T02:30:07.753Z,75.34
2022-12-29T02:31:07.849Z,75.34
2022-12-29T02:32:06.919Z,75.34
2022-12-29T02:33:08.582Z,75.75
2022-12-29T02:34:03.690Z,75.75
2022-12-29T02:35:10.336Z,75.75
2022-12-29T02:36:09.991Z,75.75
2022-12-29T02:37:05.347Z,75.75
2022-12-29T02:38:10.333Z,75.27
2022-12-29T02:39:10.352Z,75.27
2022-12-29T02:40:07.334Z,75.27
2022-12-29T02:41:10.322Z,75.27
2022-12-29T02:42:10.335Z,75.27
2022-12-29T02:43:06.894Z,75.16
2022-12-29T02:44:05.236Z,75.16
2022-12-29T02:45:04.779Z,75.16
2022-12-29T02:46:06.107Z,75.16
2022-12-29T02:47:04.901Z,75.16
2022-12-29T02:48:07.693Z,75.99
2022-12-29T02:49:10.252Z,75.99
2022-12-29T02:50:03.599Z,75.99
2022-12-29T02:51:07.226Z,75.99
2022-12-29T02:52:02.407Z,75.99
2022-12-29T02:53:02.873Z,75.71
2022-12-29T02:54:00.893Z,75.71
2022-12-29T02:55:00.377Z,75.71
2022-12-29T02:56:00.477Z,75.71
2022-12-29T02:57:00.443Z,75.71
2022-12-29T02:58:10.260Z,75.96
2022-12-29T02:59:00.669Z,75.96
2022-12-29T03:00:03.468Z,75.96
2022-12-29T03:01:10.357Z,75.96
2022-12-29T03:02:00.513Z,75.96
2022-12-29T03:03:03.842Z,75.78
2022-12-29T03:04:10.248Z,75.78
2022-12-29T03:05:00.411Z,75.78
2022-12-29T03:06:10.259Z,75.78
2022-12-29T03:07:01.381Z,75.78
2022-12-29T03:08:10.279Z,75.82
2022-12-29T03:09:18.424Z,75.82
2022-12-29T03:10:06.316Z,75.82
2022-12-29T03:11:00.442Z,75.82
2022-12-29T03:12:00.395Z,75.82
2022-12-29T03:13:00.372Z,75.56
2022-12-29T03:14:10.269Z,75.56
2022-12-29T03:15:04.660Z,75.56
2022-12-29T03:16:10.254Z,75.56
2022-12-29T03:17:04.733Z,75.56
2022-12-29T03:18:05.643Z,75.81
2022-12-29T03:19:03.682Z,75.81
2022-12-29T03:20:04.004Z,75.81
2022-12-29T03:21:05.175Z,75.81
2022-12-29T03:22:03.357Z,75.81
2022-12-29T03:23:01.815Z,75.62
2022-12-29T03:24:00.653Z,75.62
2022-12-29T03:25:04.852Z,75.62
2022-12-29T03:26:02.316Z,75.62
2022-12-29T03:27:02.607Z,75.62
2022-12-29T03:28:02.871Z,75.63
2022-12-29T03:29:00.458Z,75.63
2022-12-29T03:30:02.315Z,75.63
2022-12-29T03:31:02.321Z,75.63
2022-12-29T03:32:01.596Z,75.63
2022-12-29T03:33:03.317Z,75.50
2022-12-29T03:34:00.888Z,75.50
2022-12-29T03:35:00.969Z,75.50
2022-12-29T03:36:04.928Z,75.50
2022-12-29T03:37:04.555Z,75.50
2022-12-29T03:38:10.241Z,75.65
2022-12-29T03:39:05.804Z,75.65
2022-12-29T03:40:00.520Z,75.65
2022-12-29T03:41:03.842Z,75.65
2022-12-29T03:42:02.939Z,75.65
2022-12-29T03:43:01.741Z,75.78
2022-12-29T03:44:00.398Z,75.78
2022-12-29T03:45:00.394Z,75.78
2022-12-29T03:46:00.400Z,75.78
2022-12-29T03:47:00.498Z,75.78
2022-12-29T03:48:00.522Z,76.16
2022-12-29T03:49:00.423Z,76.16
2022-12-29T03:50:00.421Z,76.16
2022-12-29T03:51:00.384Z,76.16
2022-12-29T03:52:00.389Z,76.16
2022-12-29T03:53:00.440Z,76.13
2022-12-29T03:54:00.359Z,76.13
2022-12-29T03:55:00.490Z,76.13
2022-12-29T03:56:00.369Z,76.13
2022-12-29T03:57:00.368Z,76.13
2022-12-29T03:58:00.450Z,77.25
2022-12-29T03:59:00.375Z,77.25
2022-12-29T04:00:00.454Z,77.25
2022-12-29T04:01:00.385Z,77.25
2022-12-29T04:02:00.536Z,77.25
2022-12-29T04:03:00.549Z,78.36
2022-12-29T04:04:00.434Z,78.36
2022-12-29T04:05:00.390Z,78.36
2022-12-29T04:06:00.393Z,78.36
2022-12-29T04:07:00.401Z,78.36
2022-12-29T04:08:00.473Z,79.32
2022-12-29T04:09:00.393Z,79.32
2022-12-29T04:10:00.323Z,79.32
2022-12-29T04:11:00.423Z,79.32
2022-12-29T04:12:00.352Z,79.32
2022-12-29T04:13:00.654Z,80.67
2022-12-29T04:14:00.354Z,80.67
2022-12-29T04:15:00.531Z,80.67
2022-12-29T04:16:00.477Z,80.67
2022-12-29T04:17:00.333Z,80.67
2022-12-29T04:18:00.330Z,81.13
2022-12-29T04:19:00.488Z,81.13
2022-12-29T04:20:00.342Z,81.13
2022-12-29T04:21:00.587Z,81.13
2022-12-29T04:22:00.343Z,81.13
2022-12-29T04:23:02.561Z,81.46
2022-12-29T04:24:00.953Z,81.46
2022-12-29T04:25:00.337Z,81.46
2022-12-29T04:26:00.748Z,81.46
2022-12-29T04:27:00.335Z,81.46
2022-12-29T04:28:00.709Z,82.23
2022-12-29T04:29:00.330Z,82.23
2022-12-29T04:30:00.349Z,82.23
2022-12-29T04:31:00.393Z,82.23
2022-12-29T04:32:00.340Z,82.23
2022-12-29T04:33:00.354Z,82.40
2022-12-29T04:34:00.359Z,82.40
2022-12-29T04:35:00.330Z,82.40
2022-12-29T04:36:00.334Z,82.40
2022-12-29T04:37:00.378Z,82.40
2022-12-29T04:38:00.384Z,82.75
2022-12-29T04:39:00.468Z,82.75
2022-12-29T04:40:00.370Z,82.75
2022-12-29T04:41:00.794Z,82.75
2022-12-29T04:42:00.318Z,82.75
2022-12-29T04:43:00.581Z,82.97
2022-12-29T04:44:00.328Z,82.97
2022-12-29T04:45:00.496Z,82.97
2022-12-29T04:46:00.399Z,82.97
2022-12-29T04:47:00.333Z,82.97
2022-12-29T04:48:00.388Z,83.75
2022-12-29T04:49:00.343Z,83.75
2022-12-29T04:50:00.342Z,83.75
2022-12-29T04:51:00.525Z,83.75
2022-12-29T04:52:00.380Z,83.75
2022-12-29T04:53:00.356Z,84.42
2022-12-29T04:54:00.335Z,84.42
2022-12-29T04:55:00.360Z,84.42
2022-12-29T04:56:00.336Z,84.42
2022-12-29T04:57:00.355Z,84.42
2022-12-29T04:58:00.371Z,84.38
2022-12-29T04:59:00.378Z,84.38
2022-12-29T05:00:00.350Z,84.38
2022-12-29T05:01:00.370Z,84.38
2022-12-29T05:02:00.512Z,84.38
2022-12-29T05:03:00.705Z,84.38
2022-12-29T05:04:00.492Z,84.38
2022-12-29T05:05:00.324Z,84.38
2022-12-29T05:06:00.340Z,84.38
2022-12-29T05:07:00.332Z,84.38
2022-12-29T05:08:00.357Z,84.18
2022-12-29T05:09:00.315Z,84.18
2022-12-29T05:10:00.366Z,84.18
2022-12-29T05:11:00.367Z,84.18
2022-12-29T05:12:00.329Z,84.18
2022-12-29T05:13:00.410Z,83.88
2022-12-29T05:14:00.371Z,83.88
2022-12-29T05:15:00.628Z,83.88
2022-12-29T05:16:00.391Z,83.88
2022-12-29T05:17:00.343Z,83.88
2022-12-29T05:18:00.344Z,83.53
2022-12-29T05:19:00.332Z,83.53
2022-12-29T05:20:00.446Z,83.53
2022-12-29T05:21:00.346Z,83.53
2022-12-29T05:22:00.339Z,83.53
2022-12-29T05:23:00.335Z,83.50
2022-12-29T05:24:00.343Z,83.50
2022-12-29T05:25:00.330Z,83.50
2022-12-29T05:26:00.336Z,83.50
2022-12-29T05:27:00.351Z,83.50
2022-12-29T05:28:00.350Z,83.47
2022-12-29T05:29:00.547Z,83.47
2022-12-29T05:30:00.411Z,83.47
2022-12-29T05:31:00.337Z,83.47
2022-12-29T05:32:00.341Z,83.47
2022-12-29T05:33:00.324Z,83.26
2022-12-29T05:34:00.354Z,83.26
2022-12-29T05:35:00.331Z,83.26
2022-12-29T05:36:04.226Z,83.26
2022-12-29T05:37:00.336Z,83.26
2022-12-29T05:38:00.324Z,83.17
2022-12-29T05:39:00.322Z,83.17
2022-12-29T05:40:00.329Z,83.17
2022-12-29T05:41:00.496Z,83.17
2022-12-29T05:42:00.333Z,83.17
2022-12-29T05:43:00.347Z,83.27
2022-12-29T05:44:00.471Z,83.27
2022-12-29T05:45:00.380Z,83.27
2022-12-29T05:46:00.409Z,83.27
2022-12-29T05:47:00.534Z,83.27
2022-12-29T05:48:00.345Z,83.35
2022-12-29T05:49:00.375Z,83.35
2022-12-29T05:50:00.546Z,83.35
2022-12-29T05:51:00.329Z,83.35
2022-12-29T05:52:00.315Z,83.35
2022-12-29T05:53:00.321Z,83.44
2022-12-29T05:54:00.357Z,83.44
2022-12-29T05:55:00.321Z,83.44
2022-12-29T05:56:00.331Z,83.44
2022-12-29T05:57:00.339Z,83.44
2022-12-29T05:58:00.375Z,83.16
2022-12-29T05:59:00.400Z,83.16
2022-12-29T06:00:00.467Z,83.16
2022-12-29T06:01:00.526Z,83.16
2022-12-29T06:02:00.676Z,83.16
2022-12-29T06:03:00.690Z,83.08
2022-12-29T06:04:00.738Z,83.08
2022-12-29T06:05:00.334Z,83.08
2022-12-29T06:06:00.458Z,83.08
2022-12-29T06:07:00.337Z,83.08
2022-12-29T06:08:00.322Z,82.90
2022-12-29T06:09:00.339Z,82.90
2022-12-29T06:10:00.323Z,82.90
2022-12-29T06:11:00.366Z,82.90
2022-12-29T06:12:00.368Z,82.90
2022-12-29T06:13:00.343Z,83.06
2022-12-29T06:14:00.324Z,83.06
2022-12-29T06:15:00.313Z,83.06
2022-12-29T06:16:00.392Z,83.06
2022-12-29T06:17:00.359Z,83.06
2022-12-29T06:18:00.359Z,83.06
2022-12-29T06:19:00.331Z,83.06
2022-12-29T06:20:00.367Z,83.06
2022-12-29T06:21:00.720Z,83.06
2022-12-29T06:22:00.393Z,83.06
2022-12-29T06:23:00.349Z,83.04
2022-12-29T06:24:00.329Z,83.04
2022-12-29T06:25:04.926Z,83.04
2022-12-29T06:26:00.337Z,83.04
2022-12-29T06:27:00.319Z,83.04
2022-12-29T06:28:00.341Z,83.39
2022-12-29T06:29:00.336Z,83.39
2022-12-29T06:30:00.364Z,83.39
2022-12-29T06:31:00.336Z,83.39
2022-12-29T06:32:00.458Z,83.39
2022-12-29T06:33:00.348Z,83.36
2022-12-29T06:34:06.436Z,83.36
2022-12-29T06:35:00.631Z,83.36
2022-12-29T06:36:00.313Z,83.36
2022-12-29T06:37:00.323Z,83.36
2022-12-29T06:38:00.324Z,83.24
2022-12-29T06:39:00.321Z,83.24
2022-12-29T06:40:00.388Z,83.24
2022-12-29T06:41:00.323Z,83.24
2022-12-29T06:42:00.349Z,83.24
2022-12-29T06:43:00.332Z,83.14
2022-12-29T06:44:00.318Z,83.14
2022-12-29T06:45:00.771Z,83.14
2022-12-29T06:46:00.493Z,83.14
2022-12-29T06:47:00.335Z,83.14
2022-12-29T06:48:00.334Z,83.23
2022-12-29T06:49:00.325Z,83.23
2022-12-29T06:50:00.439Z,83.23
2022-12-29T06:51:03.418Z,83.23
2022-12-29T06:52:00.466Z,83.23
2022-12-29T06:53:00.355Z,83.15
2022-12-29T06:54:00.332Z,83.15
2022-12-29T06:55:00.352Z,83.15
2022-12-29T06:56:00.327Z,83.15
2022-12-29T06:57:00.339Z,83.15
2022-12-29T06:58:00.339Z,83.05
2022-12-29T06:59:00.337Z,83.05
2022-12-29T07:00:00.466Z,83.05
2022-12-29T07:01:00.394Z,83.05
2022-12-29T07:07:04.517Z,83.07
2022-12-29T07:08:00.510Z,82.62
2022-12-29T07:09:00.367Z,82.62
2022-12-29T07:10:03.316Z,82.62
2022-12-29T07:11:05.295Z,82.62
2022-12-29T07:12:00.335Z,82.62
2022-12-29T07:13:00.367Z,82.39
2022-12-29T07:14:05.175Z,82.39
2022-12-29T07:15:00.360Z,82.39
2022-12-29T07:16:04.843Z,82.39
2022-12-29T07:17:00.407Z,82.39
2022-12-29T07:18:00.375Z,82.25
2022-12-29T07:19:00.369Z,82.25
2022-12-29T07:20:00.340Z,82.25
2022-12-29T07:21:00.365Z,82.25
2022-12-29T07:22:00.319Z,82.25
2022-12-29T07:23:00.331Z,82.24
2022-12-29T07:24:00.338Z,82.24
2022-12-29T07:25:00.371Z,82.24
2022-12-29T07:26:03.464Z,82.24
2022-12-29T07:27:00.348Z,82.24
2022-12-29T07:28:00.427Z,82.02
2022-12-29T07:29:00.717Z,82.02
2022-12-29T07:30:00.358Z,82.02
2022-12-29T07:31:00.418Z,82.02
2022-12-29T07:32:00.458Z,82.02
2022-12-29T07:33:00.331Z,82.11
2022-12-29T07:34:00.352Z,82.11
2022-12-29T07:35:00.493Z,82.11
2022-12-29T07:36:00.347Z,82.11
2022-12-29T07:37:00.347Z,82.11
2022-12-29T07:38:00.335Z,82.05
2022-12-29T07:39:00.484Z,82.05
2022-12-29T07:40:00.823Z,82.05
2022-12-29T07:41:00.341Z,82.05
2022-12-29T07:42:04.778Z,82.05
2022-12-29T07:43:00.331Z,81.67
2022-12-29T07:44:00.331Z,81.67
2022-12-29T07:45:00.332Z,81.67
2022-12-29T07:46:00.724Z,81.67
2022-12-29T07:47:00.549Z,81.67
2022-12-29T07:48:00.352Z,81.38
2022-12-29T07:49:00.358Z,81.38
2022-12-29T07:50:00.538Z,81.38
2022-12-29T07:51:00.366Z,81.38
2022-12-29T07:52:00.355Z,81.38
2022-12-29T07:53:00.549Z,81.52
2022-12-29T07:54:00.351Z,81.52
2022-12-29T07:55:00.328Z,81.52
2022-12-29T07:56:00.350Z,81.52
2022-12-29T07:57:00.327Z,81.52
2022-12-29T07:58:00.370Z,81.54
2022-12-29T07:59:00.372Z,81.54
2022-12-29T08:00:00.383Z,81.54
2022-12-29T08:01:00.395Z,81.54
2022-12-29T08:02:00.864Z,81.54
2022-12-29T08:03:00.358Z,81.47
2022-12-29T08:04:00.456Z,81.47
2022-12-29T08:05:00.342Z,81.47
2022-12-29T08:06:00.330Z,81.47
2022-12-29T08:07:00.328Z,81.47
2022-12-29T08:08:00.405Z,81.25
2022-12-29T08:09:05.619Z,81.25
2022-12-29T08:10:00.344Z,81.25
2022-12-29T08:11:00.332Z,81.25
2022-12-29T08:12:00.351Z,81.25
2022-12-29T08:13:00.384Z,81.19
2022-12-29T08:14:00.347Z,81.19
2022-12-29T08:15:00.344Z,81.19
2022-12-29T08:16:00.614Z,81.19
2022-12-29T08:17:01.341Z,81.19
2022-12-29T08:18:00.567Z,81.36
2022-12-29T08:19:00.353Z,81.36
2022-12-29T08:20:00.394Z,81.36
2022-12-29T08:21:02.538Z,81.36
2022-12-29T08:22:00.337Z,81.36
2022-12-29T08:23:00.339Z,81.72
2022-12-29T08:24:00.481Z,81.72
2022-12-29T08:25:00.355Z,81.72
2022-12-29T08:26:01.555Z,81.72
2022-12-29T08:27:06.909Z,81.72
2022-12-29T08:28:00.346Z,81.92
2022-12-29T08:29:00.429Z,81.92
2022-12-29T08:30:00.335Z,81.92
2022-12-29T08:31:01.223Z,81.92
2022-12-29T08:32:00.337Z,81.92
2022-12-29T08:33:00.343Z,81.82
2022-12-29T08:34:00.406Z,81.82
2022-12-29T08:35:00.381Z,81.82
2022-12-29T08:36:00.814Z,81.82
2022-12-29T08:37:00.355Z,81.82
2022-12-29T08:38:00.369Z,82.25
2022-12-29T08:39:00.476Z,82.25
2022-12-29T08:40:00.358Z,82.25
2022-12-29T08:41:00.385Z,82.25
2022-12-29T08:42:00.349Z,82.25
2022-12-29T08:43:00.335Z,81.92
2022-12-29T08:44:00.341Z,81.92
2022-12-29T08:45:00.796Z,81.92
2022-12-29T08:46:00.637Z,81.92
2022-12-29T08:47:00.358Z,81.92
2022-12-29T08:48:00.371Z,81.90
2022-12-29T08:49:00.379Z,81.90
2022-12-29T08:50:00.382Z,81.90
2022-12-29T08:51:00.337Z,81.90
2022-12-29T08:52:00.329Z,81.90
2022-12-29T08:53:00.336Z,82.03
2022-12-29T08:54:00.369Z,82.03
2022-12-29T08:55:00.339Z,82.03
2022-12-29T08:56:05.125Z,82.03
2022-12-29T08:57:00.371Z,82.03
2022-12-29T08:58:00.331Z,82.11
2022-12-29T08:59:00.336Z,82.11
2022-12-29T09:00:00.447Z,82.11
2022-12-29T09:01:00.363Z,82.11
2022-12-29T09:02:00.486Z,82.11
2022-12-29T09:03:00.515Z,82.43
2022-12-29T09:04:17.455Z,82.43
2022-12-29T09:05:00.401Z,82.43
2022-12-29T09:06:00.416Z,82.43
2022-12-29T09:07:00.347Z,82.43
2022-12-29T09:08:00.548Z,82.14
2022-12-29T09:09:00.384Z,82.14
2022-12-29T09:10:00.339Z,82.14
2022-12-29T09:11:08.887Z,82.14
2022-12-29T09:12:00.352Z,82.14
2022-12-29T09:13:00.336Z,82.32
2022-12-29T09:14:00.361Z,82.32
2022-12-29T09:15:00.351Z,82.32
2022-12-29T09:16:00.480Z,82.32
2022-12-29T09:17:00.408Z,82.32
2022-12-29T09:23:00.611Z,82.13
2022-12-29T09:24:00.373Z,82.13
2022-12-29T09:25:00.474Z,82.13
2022-12-29T09:26:00.719Z,82.13
2022-12-29T09:27:00.400Z,82.13
2022-12-29T09:28:00.360Z,81.77
2022-12-29T09:29:00.353Z,81.77
2022-12-29T09:30:00.362Z,81.77
2022-12-29T09:31:00.474Z,81.77
2022-12-29T09:32:00.385Z,81.77
2022-12-29T09:33:00.336Z,81.23
2022-12-29T09:34:00.376Z,81.23
2022-12-29T09:35:00.431Z,81.23
2022-12-29T09:36:00.377Z,81.23
2022-12-29T09:37:00.341Z,81.23
2022-12-29T09:38:00.359Z,80.70
2022-12-29T09:39:00.355Z,80.70
2022-12-29T09:40:00.332Z,80.70
2022-12-29T09:41:05.653Z,80.70
2022-12-29T09:42:10.241Z,80.70
2022-12-29T09:43:10.251Z,80.61
2022-12-29T09:44:08.926Z,80.61
2022-12-29T09:45:10.241Z,80.61
2022-12-29T09:46:10.319Z,80.61
2022-12-29T09:47:01.008Z,80.61
2022-12-29T09:48:04.137Z,80.42
2022-12-29T09:49:10.271Z,80.42
2022-12-29T09:50:00.391Z,80.42
2022-12-29T09:51:02.885Z,80.42
2022-12-29T09:52:03.886Z,80.42
2022-12-29T09:53:05.037Z,79.86
2022-12-29T09:54:04.091Z,79.86
2022-12-29T09:55:05.325Z,79.86
2022-12-29T09:56:00.978Z,79.86
2022-12-29T09:57:00.517Z,79.86
2022-12-29T09:58:04.254Z,79.55
2022-12-29T09:59:04.543Z,79.55
2022-12-29T10:00:04.515Z,79.55
2022-12-29T10:01:03.428Z,79.55
2022-12-29T10:02:06.802Z,79.55
2022-12-29T10:03:10.050Z,79.25
2022-12-29T10:04:00.718Z,79.25
2022-12-29T10:05:00.414Z,79.25
2022-12-29T10:06:10.234Z,79.25
2022-12-29T10:07:28.662Z,79.25
2022-12-29T10:08:14.008Z,79.29
2022-12-29T10:09:08.057Z,79.29
2022-12-29T10:10:00.327Z,79.29
2022-12-29T10:11:01.364Z,79.29
2022-12-29T10:12:06.229Z,79.29
2022-12-29T10:13:03.833Z,79.40
2022-12-29T10:14:14.041Z,79.40
2022-12-29T10:15:10.241Z,79.40
2022-12-29T10:16:10.336Z,79.40
2022-12-29T10:17:00.324Z,79.40
2022-12-29T10:18:10.260Z,79.52
2022-12-29T10:19:10.270Z,79.52
2022-12-29T10:20:10.270Z,79.52
2022-12-29T10:21:10.247Z,79.52
2022-12-29T10:22:10.241Z,79.52
2022-12-29T10:23:07.867Z,79.79
2022-12-29T10:24:02.158Z,79.79
2022-12-29T10:25:01.686Z,79.79
2022-12-29T10:26:01.342Z,79.79
2022-12-29T10:27:00.743Z,79.79
2022-12-29T10:28:03.164Z,79.81
2022-12-29T10:29:04.483Z,79.81
2022-12-29T10:30:01.902Z,79.81
2022-12-29T10:31:06.770Z,79.81
2022-12-29T10:32:06.326Z,79.81
2022-12-29T10:33:04.362Z,79.88
2022-12-29T10:34:03.331Z,79.88
2022-12-29T10:35:05.332Z,79.88
2022-12-29T10:36:02.671Z,79.88
2022-12-29T10:37:02.811Z,79.88
2022-12-29T10:38:10.254Z,79.91
2022-12-29T10:39:03.588Z,79.91
2022-12-29T10:40:02.591Z,79.91
2022-12-29T10:41:10.243Z,79.91
2022-12-29T10:42:10.245Z,79.91
2022-12-29T10:43:01.990Z,79.72
2022-12-29T10:44:00.949Z,79.72
2022-12-29T10:45:00.375Z,79.72
2022-12-29T10:46:05.761Z,79.72
2022-12-29T10:47:03.678Z,79.72
2022-12-29T10:48:00.315Z,79.38
2022-12-29T10:49:00.704Z,79.38
2022-12-29T10:50:01.611Z,79.38
2022-12-29T10:51:03.765Z,79.38
2022-12-29T10:52:02.332Z,79.38
2022-12-29T10:53:02.117Z,79.26
2022-12-29T10:54:04.733Z,79.26
2022-12-29T10:55:02.529Z,79.26
2022-12-29T10:56:00.968Z,79.26
2022-12-29T10:57:02.971Z,79.26
2022-12-29T10:58:02.082Z,79.02
2022-12-29T10:59:06.227Z,79.02
2022-12-29T11:00:00.445Z,79.02
2022-12-29T11:01:00.541Z,79.02
2022-12-29T11:02:10.471Z,79.02
2022-12-29T11:03:08.017Z,78.85
2022-12-29T11:04:10.242Z,78.85
2022-12-29T11:05:06.466Z,78.85
2022-12-29T11:06:08.883Z,78.85
2022-12-29T11:07:00.705Z,78.85
2022-12-29T11:08:02.857Z,78.94
2022-12-29T11:09:09.021Z,78.94
2022-12-29T11:10:10.247Z,78.94
2022-12-29T11:11:03.388Z,78.94
2022-12-29T11:12:00.334Z,78.94
2022-12-29T11:13:10.065Z,79.23
2022-12-29T11:14:10.248Z,79.23
2022-12-29T11:15:01.959Z,79.23
2022-12-29T11:16:00.432Z,79.23
2022-12-29T11:17:01.364Z,79.23
2022-12-29T11:18:00.365Z,79.26
2022-12-29T11:19:01.123Z,79.26
2022-12-29T11:20:10.251Z,79.26
2022-12-29T11:21:01.938Z,79.26
2022-12-29T11:22:10.246Z,79.26
2022-12-29T11:23:01.590Z,79.10
2022-12-29T11:24:01.842Z,79.10
2022-12-29T11:25:10.243Z,79.10
2022-12-29T11:26:10.249Z,79.10
2022-12-29T11:27:10.245Z,79.10
2022-12-29T11:28:00.331Z,78.51
2022-12-29T11:29:07.670Z,78.51
2022-12-29T11:30:00.347Z,78.51
2022-12-29T11:31:01.080Z,78.51
2022-12-29T11:32:09.962Z,78.51
2022-12-29T11:33:02.828Z,77.26
2022-12-29T11:34:05.798Z,77.26
2022-12-29T11:35:00.338Z,77.26
2022-12-29T11:36:04.458Z,77.26
2022-12-29T11:37:02.181Z,77.26
2022-12-29T11:38:01.590Z,77.07
2022-12-29T11:39:00.678Z,77.07
2022-12-29T11:40:03.660Z,77.07
2022-12-29T11:41:00.747Z,77.07
2022-12-29T11:42:01.317Z,77.07
2022-12-29T11:43:01.997Z,76.91
2022-12-29T11:44:02.634Z,76.91
2022-12-29T11:45:10.527Z,76.91
2022-12-29T11:46:01.201Z,76.91
2022-12-29T11:47:00.382Z,76.91
2022-12-29T11:48:05.362Z,76.75
2022-12-29T11:49:01.379Z,76.75
2022-12-29T11:50:02.058Z,76.75
2022-12-29T11:51:00.410Z,76.75
2022-12-29T11:52:00.511Z,76.75
2022-12-29T11:53:03.526Z,77.30
2022-12-29T11:54:02.564Z,77.30
2022-12-29T11:55:01.607Z,77.30
2022-12-29T11:56:04.165Z,77.30
2022-12-29T11:57:09.418Z,77.30
2022-12-29T11:58:02.320Z,77.27
2022-12-29T11:59:10.255Z,77.27
2022-12-29T12:00:01.614Z,77.27
2022-12-29T12:01:02.310Z,77.27
2022-12-29T12:02:03.058Z,77.27
2022-12-29T12:03:03.616Z,76.87
2022-12-29T12:04:03.854Z,76.87
2022-12-29T12:05:05.514Z,76.87
2022-12-29T12:06:01.527Z,76.87
2022-12-29T12:07:02.244Z,76.87
2022-12-29T12:08:04.216Z,76.65
2022-12-29T12:09:05.908Z,76.65
2022-12-29T12:10:07.497Z,76.65
2022-12-29T12:11:04.687Z,76.65
2022-12-29T12:12:02.002Z,76.65
2022-12-29T12:13:08.546Z,76.00
2022-12-29T12:14:01.332Z,76.00
2022-12-29T12:15:01.794Z,76.00
2022-12-29T12:16:00.424Z,76.00
2022-12-29T12:17:04.755Z,76.00
2022-12-29T12:18:04.016Z,75.93
2022-12-29T12:19:03.009Z,75.93
2022-12-29T12:20:04.861Z,75.93
2022-12-29T12:21:05.241Z,75.93
2022-12-29T12:22:08.538Z,75.93
2022-12-29T12:23:10.246Z,76.17
2022-12-29T12:24:07.826Z,76.17
2022-12-29T12:25:03.800Z,76.17
2022-12-29T12:26:10.260Z,76.17
2022-12-29T12:27:04.269Z,76.17
2022-12-29T12:28:05.326Z,75.85
2022-12-29T12:29:04.000Z,75.85
2022-12-29T12:30:03.100Z,75.85
2022-12-29T12:31:01.446Z,75.85
2022-12-29T12:32:10.264Z,75.85
2022-12-29T12:33:10.251Z,75.36
2022-12-29T12:34:02.745Z,75.36
2022-12-29T12:35:01.657Z,75.36
2022-12-29T12:36:01.367Z,75.36
2022-12-29T12:37:10.243Z,75.36
2022-12-29T12:38:09.887Z,74.97
2022-12-29T12:39:00.324Z,74.97
2022-12-29T12:40:01.331Z,74.97
2022-12-29T12:41:00.343Z,74.97
2022-12-29T12:42:03.678Z,74.97
2022-12-29T12:43:00.337Z,74.58
2022-12-29T12:44:05.199Z,74.58
2022-12-29T12:45:10.258Z,74.58
2022-12-29T12:46:01.368Z,74.58
2022-12-29T12:47:10.241Z,74.58
2022-12-29T12:48:00.316Z,74.45
2022-12-29T12:49:01.334Z,74.45
2022-12-29T12:50:00.327Z,74.45
2022-12-29T12:51:10.245Z,74.45
2022-12-29T12:52:08.385Z,74.45
2022-12-29T12:53:10.245Z,74.24
2022-12-29T12:54:10.254Z,74.24
2022-12-29T12:55:10.259Z,74.24
2022-12-29T12:56:00.358Z,74.24
2022-12-29T12:57:01.345Z,74.24
2022-12-29T12:58:10.245Z,74.19
2022-12-29T12:59:10.334Z,74.19
2022-12-29T13:00:01.953Z,74.19
2022-12-29T13:01:10.067Z,74.19
2022-12-29T13:02:01.415Z,74.19